createdAt,value
2023-01-03T00:00:45.510Z,0.04
2023-01-03T00:01:51.343Z,0.56
2023-01-03T00:02:57.903Z,1.08
2023-01-03T00:04:04.030Z,0.92
2023-01-03T00:05:09.740Z,1.32
2023-01-03T00:06:15.493Z,0.08
2023-01-03T00:07:21.317Z,0.08
2023-01-03T00:08:26.992Z,0.72
2023-01-03T00:09:33.706Z,0.12
2023-01-03T00:10:39.580Z,1.28
2023-01-03T00:11:45.351Z,1.56
2023-01-03T00:12:51.066Z,2.72
2023-01-03T00:13:56.883Z,3.24
2023-01-03T00:15:02.582Z,3.20
2023-01-03T00:16:08.284Z,3.44
2023-01-03T00:17:14.354Z,2.48
2023-01-03T00:18:20.210Z,2.88
2023-01-03T00:19:25.936Z,2.68
2023-01-03T00:20:31.643Z,3.00
2023-01-03T00:21:37.413Z,3.12
2023-01-03T00:22:43.098Z,2.80
2023-01-03T00:23:48.800Z,2.96
2023-01-03T00:24:54.568Z,2.36
2023-01-03T00:26:00.265Z,2.40
2023-01-03T00:27:06.035Z,2.36
2023-01-03T00:28:11.793Z,2.32
2023-01-03T00:29:17.647Z,3.28
2023-01-03T00:30:24.415Z,2.68
2023-01-03T00:31:30.587Z,2.76
2023-01-03T00:32:36.323Z,2.88
2023-01-03T00:33:42.071Z,2.28
2023-01-03T00:34:47.781Z,2.36
2023-01-03T00:35:53.763Z,2.36
2023-01-03T00:36:59.624Z,1.56
2023-01-03T00:38:05.331Z,2.40
2023-01-03T00:39:11.122Z,2.00
2023-01-03T00:40:16.883Z,1.84
2023-01-03T00:41:22.943Z,0.96
2023-01-03T00:42:28.673Z,1.80
2023-01-03T00:43:34.564Z,1.84
2023-01-03T00:44:40.418Z,1.60
2023-01-03T00:45:46.956Z,1.16
2023-01-03T00:46:52.788Z,0.40
2023-01-03T00:47:58.595Z,0.20
2023-01-03T00:49:04.286Z,0.88
2023-01-03T00:50:10.028Z,0.92
2023-01-03T00:51:15.808Z,1.04
2023-01-03T00:52:21.600Z,0.24
2023-01-03T00:53:27.369Z,0.64
2023-01-03T00:54:33.368Z,0.92
2023-01-03T00:55:39.222Z,0.68
2023-01-03T00:56:45.116Z,0.12
2023-01-03T00:57:50.826Z,0.24
2023-01-03T00:58:58.148Z,0.04
2023-01-03T01:00:04.112Z,0.88
2023-01-03T01:01:09.831Z,0.44
2023-01-03T01:02:15.806Z,0.28
2023-01-03T01:03:21.748Z,0.16
2023-01-03T01:04:27.590Z,0.08
2023-01-03T01:05:33.346Z,0.32
2023-01-03T01:06:39.070Z,0.12
2023-01-03T01:07:44.800Z,1.00
2023-01-03T01:08:50.548Z,1.12
2023-01-03T01:09:56.292Z,1.28
2023-01-03T01:11:02.100Z,1.68
2023-01-03T01:12:07.803Z,1.08
2023-01-03T01:13:13.680Z,1.12
2023-01-03T01:14:19.389Z,1.40
2023-01-03T01:15:25.182Z,1.56
2023-01-03T01:16:31.077Z,1.76
2023-01-03T01:17:36.919Z,1.88
2023-01-03T01:18:42.633Z,2.24
2023-01-03T01:19:48.490Z,2.16
2023-01-03T01:20:54.287Z,2.32
2023-01-03T01:22:00.048Z,1.56
2023-01-03T01:23:05.872Z,1.96
2023-01-03T01:24:15.931Z,2.24
2023-01-03T01:25:23.452Z,1.72
2023-01-03T01:26:29.684Z,1.72
2023-01-03T01:27:35.457Z,1.28
2023-01-03T01:28:41.219Z,0.92
2023-01-03T01:29:46.983Z,0.88
2023-01-03T01:30:52.767Z,1.80
2023-01-03T01:31:58.590Z,1.64
2023-01-03T01:33:04.351Z,1.84
2023-01-03T01:34:10.196Z,2.16
2023-01-03T01:35:15.938Z,1.92
2023-01-03T01:36:21.798Z,2.08
2023-01-03T01:37:27.619Z,2.16
2023-01-03T01:38:33.292Z,1.64
2023-01-03T01:39:39.270Z,0.36
2023-01-03T01:40:44.899Z,0.16
2023-01-03T01:41:50.641Z,0.08
2023-01-03T01:42:56.302Z,0.08
2023-01-03T01:44:02.021Z,0.00
2023-01-03T01:45:07.680Z,0.00
2023-01-03T01:46:13.355Z,0.00
2023-01-03T01:47:19.187Z,0.04
2023-01-03T01:48:24.763Z,1.84
2023-01-03T01:49:30.500Z,1.80
2023-01-03T01:50:36.244Z,2.00
2023-01-03T01:51:41.922Z,2.00
2023-01-03T01:52:47.670Z,2.48
2023-01-03T01:53:53.312Z,2.32
2023-01-03T01:54:59.129Z,2.00
2023-01-03T01:56:04.768Z,1.64
2023-01-03T01:57:10.391Z,1.44
2023-01-03T01:58:15.956Z,1.28
2023-01-03T01:59:21.501Z,2.44
2023-01-03T02:00:27.059Z,1.32
2023-01-03T02:01:32.665Z,1.08
2023-01-03T02:02:38.384Z,0.76
2023-01-03T02:03:44.077Z,0.80
2023-01-03T02:04:49.578Z,1.24
2023-01-03T02:05:55.104Z,1.44
2023-01-03T02:07:00.623Z,0.96
2023-01-03T02:08:06.134Z,0.84
2023-01-03T02:09:11.676Z,0.64
2023-01-03T02:10:17.204Z,0.64
2023-01-03T02:11:22.753Z,0.16
2023-01-03T02:12:28.271Z,0.60
2023-01-03T02:13:33.805Z,0.84
2023-01-03T02:14:39.373Z,1.28
2023-01-03T02:15:44.913Z,0.60
2023-01-03T02:16:50.419Z,0.72
2023-01-03T02:17:55.935Z,0.20
2023-01-03T02:19:01.718Z,1.24
2023-01-03T02:20:07.566Z,2.00
2023-01-03T02:21:19.634Z,2.20
2023-01-03T02:22:26.705Z,2.72
2023-01-03T02:23:32.234Z,3.20
2023-01-03T02:24:38.544Z,2.56
2023-01-03T02:25:44.124Z,2.52
2023-01-03T02:26:49.679Z,2.20
2023-01-03T02:27:55.135Z,2.16
2023-01-03T02:29:00.671Z,1.96
2023-01-03T02:30:06.224Z,2.32
2023-01-03T02:31:11.848Z,2.32
2023-01-03T02:32:17.334Z,3.00
